createdAt,value
2017-07-03T00:00:28.817Z,9.80
2017-07-03T00:02:55.081Z,9.57
2017-07-03T00:05:21.376Z,9.90
2017-07-03T00:07:47.638Z,9.27
2017-07-03T00:10:13.921Z,8.20
2017-07-03T00:12:40.197Z,8.17
2017-07-03T00:15:06.489Z,9.53
2017-07-03T00:17:32.778Z,9.97
2017-07-03T00:19:59.041Z,8.83
2017-07-03T00:22:25.315Z,9.67
2017-07-03T00:24:51.631Z,8.47
2017-07-03T00:27:17.921Z,8.43
2017-07-03T00:29:44.953Z,7.53
2017-07-03T00:32:11.961Z,7.87
2017-07-03T00:34:38.253Z,8.37
2017-07-03T00:37:04.549Z,8.17
2017-07-03T00:39:31.579Z,7.80
2017-07-03T00:41:57.834Z,7.87
2017-07-03T00:44:24.117Z,7.23
2017-07-03T00:46:50.385Z,7.13
2017-07-03T00:49:17.475Z,6.63
2017-07-03T00:51:43.761Z,7.37
2017-07-03T00:54:10.030Z,6.03
2017-07-03T00:56:36.300Z,4.63
2017-07-03T00:59:02.582Z,4.80
2017-07-03T01:01:29.869Z,6.30
2017-07-03T01:03:56.142Z,4.63
2017-07-03T01:06:22.453Z,5.17
2017-07-03T01:08:48.717Z,4.63
2017-07-03T01:11:15.006Z,4.77
2017-07-03T01:13:41.301Z,3.90
2017-07-03T01:16:07.572Z,3.90
2017-07-03T01:18:33.854Z,4.00
2017-07-03T01:21:00.125Z,3.47
2017-07-03T01:23:26.385Z,4.17
2017-07-03T01:25:52.689Z,3.03
2017-07-03T01:28:19.700Z,3.20
2017-07-03T01:30:45.982Z,3.50
2017-07-03T01:33:12.276Z,3.23
2017-07-03T01:35:38.545Z,3.57
2017-07-03T01:38:04.842Z,3.40
2017-07-03T01:40:31.130Z,3.03
2017-07-03T01:42:57.403Z,3.90
2017-07-03T01:45:23.722Z,3.43
2017-07-03T01:47:50.034Z,3.10
2017-07-03T01:50:16.360Z,3.73
2017-07-03T01:52:42.653Z,3.37
2017-07-03T01:55:08.948Z,3.80
2017-07-03T01:57:35.217Z,3.87
2017-07-03T02:00:01.486Z,3.60
2017-07-03T02:02:27.785Z,3.70
2017-07-03T02:04:54.071Z,2.93
2017-07-03T02:07:21.102Z,3.47
2017-07-03T02:09:47.373Z,3.67
2017-07-03T02:12:13.666Z,2.67
2017-07-03T02:14:41.966Z,3.83
2017-07-03T02:17:08.234Z,2.50
2017-07-03T02:19:34.565Z,2.23
2017-07-03T02:22:00.842Z,2.23
2017-07-03T02:24:27.854Z,2.77
2017-07-03T02:26:54.137Z,2.50
2017-07-03T02:29:20.410Z,2.10
2017-07-03T02:31:46.674Z,2.97
2017-07-03T02:34:12.941Z,2.27
2017-07-03T02:36:39.222Z,3.47
2017-07-03T02:39:05.525Z,2.60
2017-07-03T02:41:31.794Z,2.33
2017-07-03T02:43:58.060Z,2.53
2017-07-03T02:46:24.366Z,2.43
2017-07-03T02:48:50.629Z,2.27
2017-07-03T02:53:49.441Z,1.80
2017-07-03T02:56:15.712Z,3.90
2017-07-03T02:58:43.029Z,2.70
2017-07-03T03:01:10.313Z,3.00
2017-07-03T03:03:37.322Z,3.00
2017-07-03T03:06:03.601Z,4.83
2017-07-03T03:08:29.867Z,2.80
2017-07-03T03:10:56.149Z,3.27
2017-07-03T03:13:23.165Z,3.07
2017-07-03T03:15:49.446Z,3.53
2017-07-03T03:18:15.718Z,4.90
2017-07-03T03:20:41.985Z,4.03
2017-07-03T03:23:09.009Z,8.93
2017-07-03T03:25:35.274Z,3.70
2017-07-03T03:28:01.584Z,3.77
2017-07-03T03:30:28.636Z,4.80
2017-07-03T03:32:55.649Z,4.07
2017-07-03T03:35:21.930Z,4.50
2017-07-03T03:37:48.229Z,4.10
2017-07-03T03:40:14.485Z,4.27
2017-07-03T03:42:40.745Z,4.40
2017-07-03T03:45:07.020Z,3.83
2017-07-03T03:47:34.053Z,4.67
2017-07-03T03:50:00.325Z,5.07
2017-07-03T03:52:26.646Z,4.33
2017-07-03T03:54:52.910Z,4.73
2017-07-03T03:57:19.218Z,5.23
2017-07-03T03:59:45.510Z,5.40
2017-07-03T04:02:12.512Z,5.93
2017-07-03T04:04:38.774Z,5.30
2017-07-03T04:07:05.045Z,5.07
2017-07-03T04:09:31.329Z,6.80
2017-07-03T04:11:57.620Z,6.07
2017-07-03T04:14:23.887Z,6.20
2017-07-03T04:16:50.191Z,7.03
2017-07-03T04:19:16.465Z,6.17
2017-07-03T04:21:43.750Z,6.70
2017-07-03T04:24:10.042Z,6.33
2017-07-03T04:26:37.049Z,7.00
2017-07-03T04:29:03.338Z,7.37
2017-07-03T04:31:29.595Z,6.90
2017-07-03T04:33:55.897Z,6.43
2017-07-03T04:36:22.169Z,6.37
2017-07-03T04:38:48.427Z,5.73
2017-07-03T04:41:14.693Z,8.40
2017-07-03T04:43:40.945Z,8.00
2017-07-03T04:46:07.201Z,6.97
2017-07-03T04:48:33.482Z,7.57
2017-07-03T04:50:59.735Z,8.23
2017-07-03T04:53:25.985Z,7.90
2017-07-03T04:55:52.297Z,7.00
2017-07-03T04:58:18.560Z,7.17
2017-07-03T05:00:45.577Z,7.07
2017-07-03T05:03:11.856Z,8.40
2017-07-03T05:05:38.124Z,7.00
2017-07-03T05:08:04.410Z,7.67
2017-07-03T05:10:30.674Z,7.63
2017-07-03T05:12:56.934Z,9.20
2017-07-03T05:15:23.216Z,7.00
2017-07-03T05:17:49.497Z,8.33
2017-07-03T05:20:15.788Z,6.67
2017-07-03T05:22:42.070Z,6.83
2017-07-03T05:25:09.069Z,7.03
2017-07-03T05:27:35.331Z,6.20
2017-07-03T05:30:01.611Z,6.30
2017-07-03T05:32:27.895Z,7.33
2017-07-03T05:34:54.161Z,7.40
2017-07-03T05:37:20.441Z,6.63
2017-07-03T05:39:46.700Z,7.47
2017-07-03T05:42:12.994Z,7.00
2017-07-03T05:44:39.249Z,8.43
2017-07-03T05:47:06.546Z,7.00
2017-07-03T05:49:32.853Z,8.03
2017-07-03T05:51:59.137Z,6.73
2017-07-03T05:54:25.412Z,7.83
2017-07-03T05:56:51.701Z,6.70
2017-07-03T05:59:18.953Z,7.67
2017-07-03T06:01:45.241Z,6.57
2017-07-03T06:04:11.505Z,7.23
2017-07-03T06:06:37.762Z,6.67
2017-07-03T06:09:04.773Z,7.93
2017-07-03T06:11:31.035Z,6.40
2017-07-03T06:13:57.321Z,7.00
2017-07-03T06:16:23.584Z,6.80
2017-07-03T06:18:50.570Z,7.57
2017-07-03T06:21:16.846Z,7.03
2017-07-03T06:23:43.113Z,7.10
2017-07-03T06:26:10.403Z,6.67
2017-07-03T06:28:36.653Z,6.70
2017-07-03T06:31:02.916Z,7.23
2017-07-03T06:33:29.176Z,7.17
2017-07-03T06:35:55.445Z,6.70
2017-07-03T06:38:21.770Z,7.10
2017-07-03T06:40:48.041Z,6.67
2017-07-03T06:43:14.309Z,5.23
2017-07-03T06:45:40.561Z,5.50
2017-07-03T06:48:06.819Z,5.53
2017-07-03T06:50:33.105Z,5.80
2017-07-03T06:53:00.380Z,6.50
2017-07-03T06:55:26.654Z,5.57
2017-07-03T06:57:52.909Z,5.77
2017-07-03T07:00:19.193Z,5.53
2017-07-03T07:02:45.477Z,5.50
2017-07-03T07:05:11.777Z,5.27
2017-07-03T07:07:38.058Z,5.30
2017-07-03T07:10:04.323Z,5.90
2017-07-03T07:12:30.573Z,4.90
2017-07-03T07:14:56.850Z,5.53
2017-07-03T07:17:23.115Z,4.60
2017-07-03T07:19:49.386Z,5.10
2017-07-03T07:22:15.645Z,5.23
2017-07-03T07:24:41.906Z,5.27
2017-07-03T07:27:08.173Z,4.13
2017-07-03T07:29:34.470Z,5.10
2017-07-03T07:32:01.769Z,5.13
2017-07-03T07:34:28.777Z,5.10
2017-07-03T07:36:55.040Z,5.40
2017-07-03T07:39:22.045Z,6.83
2017-07-03T07:41:48.326Z,6.23
2017-07-03T07:44:14.601Z,6.03
2017-07-03T07:46:40.858Z,5.17
2017-07-03T07:49:08.190Z,5.60
2017-07-03T07:51:34.465Z,6.33
2017-07-03T07:54:00.741Z,5.50
2017-07-03T07:56:27.005Z,4.60
2017-07-03T07:58:53.289Z,5.37
2017-07-03T08:01:19.559Z,5.00
2017-07-03T08:03:45.821Z,5.30
2017-07-03T08:06:12.101Z,5.27
2017-07-03T08:08:38.382Z,5.03
2017-07-03T08:11:04.645Z,5.00
2017-07-03T08:13:30.909Z,5.63
2017-07-03T08:15:57.165Z,5.87
2017-07-03T08:18:23.445Z,5.50
2017-07-03T08:20:49.704Z,5.50
2017-07-03T08:23:16.701Z,5.20
2017-07-03T08:25:42.962Z,4.63
2017-07-03T08:28:09.221Z,4.10
2017-07-03T08:30:35.497Z,4.17
2017-07-03T08:33:01.761Z,3.70
2017-07-03T08:35:28.764Z,4.50
2017-07-03T08:37:55.029Z,4.77
2017-07-03T08:40:22.023Z,4.63
2017-07-03T08:42:48.305Z,3.77
2017-07-03T08:45:14.586Z,4.40
2017-07-03T08:47:41.869Z,5.67
2017-07-03T08:50:08.129Z,6.40
2017-07-03T08:52:35.129Z,5.10
2017-07-03T08:55:01.412Z,5.57
2017-07-03T08:57:27.698Z,5.03
2017-07-03T08:59:53.958Z,5.03
2017-07-03T09:02:20.963Z,4.90
2017-07-03T09:04:47.216Z,4.87
2017-07-03T09:07:13.860Z,5.43
2017-07-03T09:09:40.857Z,5.00
2017-07-03T09:12:07.133Z,6.27
2017-07-03T09:14:34.133Z,6.83
2017-07-03T09:17:00.385Z,5.40
2017-07-03T09:19:26.649Z,5.23
2017-07-03T09:21:52.933Z,6.50
2017-07-03T09:24:19.192Z,3.80
2017-07-03T09:26:45.445Z,4.60
2017-07-03T09:29:11.709Z,3.93
2017-07-03T09:31:39.033Z,4.00
2017-07-03T09:34:05.293Z,3.87
2017-07-03T09:36:31.575Z,3.37
2017-07-03T09:38:57.835Z,4.17
2017-07-03T09:41:24.081Z,4.40
2017-07-03T09:43:50.361Z,6.70
2017-07-03T09:46:17.386Z,3.87
2017-07-03T09:48:43.654Z,3.83
2017-07-03T09:51:09.908Z,4.30
2017-07-03T09:53:36.157Z,3.00
2017-07-03T09:56:02.427Z,2.67
2017-07-03T09:58:28.686Z,3.33
2017-07-03T10:00:54.953Z,3.10
2017-07-03T10:03:21.248Z,2.80
2017-07-03T10:05:47.518Z,2.80
2017-07-03T10:08:14.518Z,3.10
2017-07-03T10:10:40.806Z,5.03
2017-07-03T10:13:07.808Z,3.40
2017-07-03T10:15:34.054Z,3.07
2017-07-03T10:18:00.304Z,3.07
2017-07-03T10:20:27.302Z,2.70
2017-07-03T10:22:53.584Z,2.40
2017-07-03T10:25:19.842Z,2.40
2017-07-03T10:27:46.105Z,2.40
2017-07-03T10:30:12.357Z,2.10
2017-07-03T10:32:39.356Z,3.43
2017-07-03T10:35:05.689Z,2.67
2017-07-03T10:37:31.942Z,3.50
2017-07-03T10:39:58.214Z,3.77
2017-07-03T10:42:24.474Z,2.73
2017-07-03T10:44:50.730Z,2.43
2017-07-03T10:47:17.005Z,3.47
2017-07-03T10:49:43.265Z,2.60
2017-07-03T10:52:09.525Z,3.30
2017-07-03T10:54:35.793Z,6.13
2017-07-03T10:57:02.053Z,2.13
2017-07-03T10:59:28.333Z,3.70
2017-07-03T11:01:54.598Z,1.90
2017-07-03T11:04:20.858Z,2.17
2017-07-03T11:06:47.144Z,2.00
2017-07-03T11:09:13.417Z,4.07
2017-07-03T11:11:39.696Z,2.30
2017-07-03T11:14:06.964Z,1.80
2017-07-03T11:16:33.229Z,2.03
2017-07-03T11:18:59.501Z,2.30
2017-07-03T11:21:25.793Z,1.80
2017-07-03T11:23:52.075Z,2.77
2017-07-03T11:26:18.331Z,1.90
2017-07-03T11:28:44.596Z,2.40
2017-07-03T11:31:10.854Z,2.23
2017-07-03T11:33:37.107Z,2.50
2017-07-03T11:36:03.385Z,1.93
2017-07-03T11:38:30.381Z,2.03
2017-07-03T11:40:56.633Z,1.83
2017-07-03T11:43:22.885Z,2.03
2017-07-03T11:45:49.877Z,2.20
2017-07-03T11:48:16.177Z,1.93
2017-07-03T11:50:42.432Z,1.70
2017-07-03T11:53:09.701Z,1.67
2017-07-03T11:55:35.967Z,2.00
2017-07-03T11:58:02.958Z,2.03
2017-07-03T12:00:29.241Z,5.13
2017-07-03T12:02:56.234Z,1.70
2017-07-03T12:05:22.494Z,3.17
2017-07-03T12:07:48.770Z,2.27
2017-07-03T12:10:15.024Z,2.43
2017-07-03T12:12:41.287Z,2.33
2017-07-03T12:15:08.297Z,2.40
2017-07-03T12:17:34.578Z,2.10
2017-07-03T12:20:01.582Z,1.70
2017-07-03T12:22:27.847Z,2.23
2017-07-03T12:24:55.865Z,2.40
2017-07-03T12:27:22.156Z,4.17
2017-07-03T12:29:48.449Z,2.33
2017-07-03T12:32:14.713Z,2.33
2017-07-03T12:34:41.696Z,1.90
2017-07-03T12:37:07.974Z,2.47
2017-07-03T12:39:34.985Z,1.87
2017-07-03T12:42:01.237Z,1.90
2017-07-03T12:44:27.488Z,2.90
2017-07-03T12:46:54.498Z,1.90
2017-07-03T12:49:20.765Z,2.20
2017-07-03T12:51:47.777Z,2.10
2017-07-03T12:54:14.037Z,1.93
2017-07-03T12:56:40.309Z,2.03
2017-07-03T12:59:06.592Z,2.13
2017-07-03T13:01:33.600Z,1.70
2017-07-03T13:03:59.879Z,1.70
2017-07-03T13:06:26.144Z,1.60
2017-07-03T13:08:52.401Z,2.20
2017-07-03T13:11:18.656Z,3.33
2017-07-03T13:13:44.921Z,2.57
2017-07-03T13:16:11.221Z,3.50
2017-07-03T13:18:37.489Z,1.60
2017-07-03T13:21:03.749Z,1.83
2017-07-03T13:23:30.030Z,1.57
2017-07-03T13:25:56.290Z,1.50
2017-07-03T13:28:23.582Z,1.20
2017-07-03T13:30:49.841Z,1.33
2017-07-03T13:33:16.115Z,1.23
2017-07-03T13:35:43.132Z,1.03
2017-07-03T13:38:09.397Z,1.43
2017-07-03T13:40:36.433Z,1.30
2017-07-03T13:43:02.693Z,1.30
2017-07-03T13:45:28.949Z,0.90
2017-07-03T13:47:55.217Z,1.10
2017-07-03T13:50:21.490Z,1.30
2017-07-03T13:52:47.787Z,1.30
2017-07-03T13:55:14.789Z,1.00
2017-07-03T13:57:41.058Z,1.00
2017-07-03T14:00:07.342Z,1.23
2017-07-03T14:02:33.597Z,0.70
2017-07-03T14:04:59.878Z,1.43
2017-07-03T14:07:26.134Z,1.63
2017-07-03T14:09:52.401Z,1.20
2017-07-03T14:12:18.660Z,1.20
2017-07-03T14:14:44.934Z,1.40
2017-07-03T14:17:11.220Z,1.03
2017-07-03T14:19:37.482Z,2.63
2017-07-03T14:22:03.733Z,1.50
2017-07-03T14:24:30.000Z,0.87
2017-07-03T14:26:56.265Z,1.70
2017-07-03T14:29:22.541Z,0.73
2017-07-03T14:31:49.574Z,0.80
2017-07-03T14:34:15.825Z,1.20
2017-07-03T14:36:42.078Z,4.20
2017-07-03T14:39:08.333Z,0.70
2017-07-03T14:41:34.617Z,0.80
2017-07-03T14:44:00.902Z,1.10
2017-07-03T14:46:27.153Z,1.03
2017-07-03T14:48:54.170Z,1.07
2017-07-03T14:51:20.468Z,1.33
2017-07-03T14:53:46.761Z,2.80
2017-07-03T14:56:13.766Z,1.33
2017-07-03T14:58:40.034Z,1.13
2017-07-03T15:01:06.289Z,1.00
2017-07-03T15:03:32.558Z,0.90
2017-07-03T15:05:58.837Z,1.27
2017-07-03T15:08:25.114Z,0.93
2017-07-03T15:10:51.384Z,1.47
2017-07-03T15:13:17.681Z,0.90
2017-07-03T15:15:43.949Z,0.93
2017-07-03T15:18:10.210Z,0.80
2017-07-03T15:20:36.497Z,1.70
2017-07-03T15:23:03.493Z,1.27
2017-07-03T15:25:29.749Z,2.40
2017-07-03T15:27:56.041Z,0.60
2017-07-03T15:30:22.310Z,0.83
2017-07-03T15:32:48.566Z,1.00
2017-07-03T15:35:14.829Z,1.17
2017-07-03T15:37:41.105Z,1.63
2017-07-03T15:40:08.125Z,0.67
2017-07-03T15:42:34.373Z,0.80
2017-07-03T15:45:00.624Z,1.07
2017-07-03T15:47:27.626Z,1.13
2017-07-03T15:49:53.894Z,0.90
2017-07-03T15:52:20.909Z,1.50
2017-07-03T15:54:47.174Z,0.90
2017-07-03T15:57:14.185Z,0.77
2017-07-03T15:59:40.441Z,0.90
2017-07-03T16:02:06.696Z,0.80
2017-07-03T16:04:33.006Z,0.90
2017-07-03T16:06:59.270Z,0.80
2017-07-03T16:09:25.525Z,0.70
2017-07-03T16:11:51.811Z,0.80
2017-07-03T16:14:18.079Z,0.80
2017-07-03T16:16:44.360Z,1.03
2017-07-03T16:19:10.630Z,0.70
2017-07-03T16:21:36.886Z,0.80
2017-07-03T16:24:03.133Z,1.83
2017-07-03T16:26:30.177Z,0.90
2017-07-03T16:28:56.454Z,1.03
2017-07-03T16:31:22.742Z,0.90
2017-07-03T16:33:49.024Z,1.00
2017-07-03T16:36:15.315Z,1.10
2017-07-03T16:38:41.586Z,3.03
2017-07-03T16:41:07.861Z,1.00
2017-07-03T16:43:34.118Z,1.10
2017-07-03T16:46:00.390Z,0.90
2017-07-03T16:48:26.703Z,1.53
2017-07-03T16:50:52.976Z,1.10
2017-07-03T16:53:19.261Z,1.00
2017-07-03T16:55:45.521Z,1.10
2017-07-03T16:58:11.769Z,1.13
2017-07-03T17:00:38.029Z,0.80
2017-07-03T17:03:04.305Z,1.20
2017-07-03T17:05:31.826Z,1.40
2017-07-03T17:07:58.101Z,1.23
2017-07-03T17:10:24.362Z,1.37
2017-07-03T17:12:50.880Z,1.10
2017-07-03T17:15:17.145Z,1.43
2017-07-03T17:17:43.434Z,1.47
2017-07-03T17:20:09.713Z,1.10
2017-07-03T17:22:35.965Z,1.30
2017-07-03T17:25:02.237Z,1.53
2017-07-03T17:27:28.514Z,1.63
2017-07-03T17:29:54.796Z,1.63
2017-07-03T17:32:21.065Z,0.80
2017-07-03T17:34:47.333Z,1.00
2017-07-03T17:37:13.598Z,0.80
2017-07-03T17:39:39.901Z,1.27
2017-07-03T17:42:06.191Z,2.93
2017-07-03T17:44:32.468Z,1.33
2017-07-03T17:46:58.748Z,1.60
2017-07-03T17:49:25.013Z,0.90
2017-07-03T17:51:51.282Z,1.00
2017-07-03T17:54:17.553Z,0.87
2017-07-03T17:56:44.565Z,1.63
2017-07-03T17:59:11.837Z,1.33
2017-07-03T18:01:38.854Z,1.17
2017-07-03T18:04:05.106Z,1.00
2017-07-03T18:06:31.373Z,1.40
2017-07-03T18:08:57.654Z,1.57
2017-07-03T18:11:23.902Z,4.83
2017-07-03T18:13:50.902Z,1.33
2017-07-03T18:16:17.205Z,2.30
2017-07-03T18:18:43.461Z,1.33
2017-07-03T18:21:09.734Z,1.67
2017-07-03T18:23:36.733Z,1.50
2017-07-03T18:26:02.988Z,3.63
2017-07-03T18:28:29.246Z,1.50
2017-07-03T18:30:55.509Z,1.00
2017-07-03T18:33:21.790Z,1.30
2017-07-03T18:35:49.865Z,1.40
2017-07-03T18:38:16.865Z,1.67
2017-07-03T18:40:43.126Z,2.90
2017-07-03T18:43:09.387Z,1.40
2017-07-03T18:45:36.691Z,1.10
2017-07-03T18:48:02.937Z,1.30
2017-07-03T18:50:29.308Z,2.40
2017-07-03T18:52:55.562Z,1.30
2017-07-03T18:55:21.826Z,1.83
2017-07-03T18:57:48.114Z,2.10
2017-07-03T19:00:14.380Z,2.43
2017-07-03T19:02:40.650Z,1.43
2017-07-03T19:05:06.909Z,2.50
2017-07-03T19:07:33.173Z,1.60
2017-07-03T19:09:59.449Z,1.60
2017-07-03T19:12:25.702Z,2.20
2017-07-03T19:14:51.962Z,2.17
2017-07-03T19:17:18.974Z,1.60
2017-07-03T19:19:45.237Z,2.00
2017-07-03T19:22:11.534Z,1.70
2017-07-03T19:24:37.844Z,1.40
2017-07-03T19:27:04.113Z,2.30
2017-07-03T19:29:31.130Z,1.50
2017-07-03T19:31:57.392Z,1.63
2017-07-03T19:34:23.693Z,1.90
2017-07-03T19:36:49.949Z,1.57
2017-07-03T19:39:16.226Z,2.23
2017-07-03T19:41:42.489Z,4.40
2017-07-03T19:44:09.200Z,1.50
2017-07-03T19:46:35.497Z,1.70
2017-07-03T19:49:02.829Z,1.13
2017-07-03T19:51:29.165Z,2.80
2017-07-03T19:53:55.437Z,3.10
2017-07-03T19:56:21.837Z,1.60
2017-07-03T19:58:48.157Z,1.70
2017-07-03T20:01:14.447Z,1.00
2017-07-03T20:03:40.723Z,1.77
2017-07-03T20:06:07.001Z,1.80
2017-07-03T20:08:33.282Z,2.30
2017-07-03T20:10:59.569Z,1.90
2017-07-03T20:13:25.963Z,1.83
2017-07-03T20:15:52.229Z,4.00
2017-07-03T20:18:18.489Z,1.40
2017-07-03T20:20:44.765Z,1.40
2017-07-03T20:23:11.054Z,2.07
2017-07-03T20:25:38.053Z,1.60
2017-07-03T20:28:04.318Z,2.10
2017-07-03T20:30:30.617Z,1.40
2017-07-03T20:32:56.887Z,1.63
2017-07-03T20:35:23.897Z,1.10
2017-07-03T20:37:50.174Z,1.77
2017-07-03T20:40:16.433Z,1.50
2017-07-03T20:42:42.760Z,1.50
2017-07-03T20:45:09.032Z,1.50
2017-07-03T20:47:36.038Z,2.93
2017-07-03T20:50:02.331Z,1.70
2017-07-03T20:52:28.622Z,1.43
2017-07-03T20:54:54.887Z,3.00
2017-07-03T20:57:21.163Z,1.50
2017-07-03T20:59:47.429Z,2.00
2017-07-03T21:02:14.459Z,1.70
2017-07-03T21:04:40.730Z,2.50
2017-07-03T21:07:06.993Z,1.83
2017-07-03T21:09:33.278Z,1.70
2017-07-03T21:11:59.564Z,2.03
2017-07-03T21:14:25.856Z,1.63
2017-07-03T21:16:52.133Z,1.57
2017-07-03T21:19:18.405Z,1.50
2017-07-03T21:21:44.673Z,1.83
2017-07-03T21:24:10.945Z,1.60
2017-07-03T21:26:37.990Z,2.30
2017-07-03T21:29:05.013Z,3.33
2017-07-03T21:31:31.301Z,3.03
2017-07-03T21:33:57.563Z,2.07
2017-07-03T21:36:23.829Z,3.07
2017-07-03T21:38:50.882Z,1.90
2017-07-03T21:41:17.165Z,2.03
2017-07-03T21:43:43.422Z,1.70
2017-07-03T21:46:11.441Z,2.07
2017-07-03T21:48:37.742Z,2.60
2017-07-03T21:51:04.037Z,1.93
2017-07-03T21:53:30.297Z,2.03
2017-07-03T21:55:56.561Z,1.97
2017-07-03T21:58:23.852Z,3.57
2017-07-03T22:00:50.866Z,1.73
2017-07-03T22:03:18.182Z,2.10
2017-07-03T22:05:44.445Z,2.20
2017-07-03T22:08:10.698Z,1.60
2017-07-03T22:10:36.989Z,1.97
2017-07-03T22:13:03.276Z,1.90
2017-07-03T22:15:29.574Z,2.10
2017-07-03T22:17:56.090Z,2.10
2017-07-03T22:20:22.354Z,4.50
2017-07-03T22:22:49.412Z,3.50
2017-07-03T22:25:15.679Z,2.20
2017-07-03T22:27:41.956Z,2.40
2017-07-03T22:30:09.277Z,2.30
2017-07-03T22:32:35.536Z,2.43
2017-07-03T22:35:02.829Z,2.03
2017-07-03T22:37:29.089Z,1.93
2017-07-03T22:39:55.383Z,1.70
2017-07-03T22:42:21.653Z,4.40
2017-07-03T22:44:47.960Z,2.40
2017-07-03T22:47:14.244Z,1.70
2017-07-03T22:49:41.241Z,2.03
2017-07-03T22:52:07.530Z,1.77
2017-07-03T22:54:34.528Z,2.10
2017-07-03T22:57:00.785Z,1.73
2017-07-03T22:59:27.053Z,2.20
2017-07-03T23:01:53.330Z,1.97
2017-07-03T23:04:19.636Z,2.27
2017-07-03T23:06:45.920Z,1.97
2017-07-03T23:09:12.936Z,1.73
2017-07-03T23:11:39.210Z,2.50
2017-07-03T23:14:05.465Z,2.93
2017-07-03T23:16:31.749Z,2.20
2017-07-03T23:18:58.789Z,1.93
2017-07-03T23:21:25.073Z,2.10
2017-07-03T23:23:51.329Z,2.37
2017-07-03T23:26:17.639Z,2.37
2017-07-03T23:28:43.901Z,2.13
2017-07-03T23:31:10.938Z,2.27
2017-07-03T23:33:37.210Z,2.07
2017-07-03T23:36:03.478Z,2.27
2017-07-03T23:38:29.751Z,2.10
2017-07-03T23:40:56.025Z,9.47
2017-07-03T23:43:22.349Z,1.60
2017-07-03T23:45:48.611Z,1.90
2017-07-03T23:48:14.867Z,2.10
2017-07-03T23:50:41.189Z,3.50
2017-07-03T23:53:07.502Z,1.97
2017-07-03T23:55:33.796Z,1.80
2017-07-03T23:58:00.057Z,2.30
